sensor_id;sensor_type;location;lat;lon;timestamp;P1;durP1;ratioP1;P2;durP2;ratioP2
65463;SDS011;52063;45.110;9.870;2023-11-19T00:01:26;14.80;;;7.73;;
65463;SDS011;52063;45.110;9.870;2023-11-19T00:03:52;15.82;;;8.20;;
65463;SDS011;52063;45.110;9.870;2023-11-19T00:06:18;17.35;;;7.68;;
65463;SDS011;52063;45.110;9.870;2023-11-19T00:08:44;14.63;;;8.03;;
65463;SDS011;52063;45.110;9.870;2023-11-19T00:11:09;14.87;;;8.17;;
65463;SDS011;52063;45.110;9.870;2023-11-19T00:13:35;15.93;;;7.83;;
65463;SDS011;52063;45.110;9.870;2023-11-19T00:16:00;12.15;;;7.30;;
65463;SDS011;52063;45.110;9.870;2023-11-19T00:18:25;13.80;;;7.17;;
65463;SDS011;52063;45.110;9.870;2023-11-19T00:20:51;19.37;;;7.83;;
65463;SDS011;52063;45.110;9.870;2023-11-19T00:23:16;14.18;;;7.03;;
65463;SDS011;52063;45.110;9.870;2023-11-19T00:25:42;12.93;;;7.33;;
65463;SDS011;52063;45.110;9.870;2023-11-19T00:28:07;13.63;;;7.07;;
65463;SDS011;52063;45.110;9.870;2023-11-19T00:30:34;11.65;;;7.40;;
65463;SDS011;52063;45.110;9.870;2023-11-19T00:33:00;13.23;;;7.40;;
65463;SDS011;52063;45.110;9.870;2023-11-19T00:35:25;11.23;;;7.32;;
65463;SDS011;52063;45.110;9.870;2023-11-19T00:37:51;13.37;;;7.37;;
65463;SDS011;52063;45.110;9.870;2023-11-19T00:40:18;14.30;;;6.95;;
65463;SDS011;52063;45.110;9.870;2023-11-19T00:42:46;13.85;;;7.32;;
65463;SDS011;52063;45.110;9.870;2023-11-19T00:45:12;13.10;;;7.63;;
65463;SDS011;52063;45.110;9.870;2023-11-19T00:47:38;11.18;;;6.95;;
65463;SDS011;52063;45.110;9.870;2023-11-19T00:50:03;13.37;;;7.20;;
65463;SDS011;52063;45.110;9.870;2023-11-19T00:52:30;11.85;;;7.35;;
65463;SDS011;52063;45.110;9.870;2023-11-19T00:54:56;13.30;;;7.68;;
65463;SDS011;52063;45.110;9.870;2023-11-19T00:57:22;14.37;;;7.40;;
65463;SDS011;52063;45.110;9.870;2023-11-19T00:59:49;13.73;;;7.22;;
65463;SDS011;52063;45.110;9.870;2023-11-19T01:02:14;12.03;;;6.70;;
65463;SDS011;52063;45.110;9.870;2023-11-19T01:04:40;11.90;;;7.00;;
65463;SDS011;52063;45.110;9.870;2023-11-19T01:07:06;12.13;;;7.00;;
65463;SDS011;52063;45.110;9.870;2023-11-19T01:09:31;10.73;;;6.60;;
65463;SDS011;52063;45.110;9.870;2023-11-19T01:11:58;10.57;;;6.90;;
65463;SDS011;52063;45.110;9.870;2023-11-19T01:14:26;13.63;;;7.10;;
65463;SDS011;52063;45.110;9.870;2023-11-19T01:16:52;11.23;;;6.68;;
65463;SDS011;52063;45.110;9.870;2023-11-19T01:19:19;10.23;;;6.40;;
65463;SDS011;52063;45.110;9.870;2023-11-19T01:21:46;9.90;;;6.50;;
65463;SDS011;52063;45.110;9.870;2023-11-19T01:24:12;10.20;;;6.30;;
65463;SDS011;52063;45.110;9.870;2023-11-19T01:26:38;10.52;;;6.60;;
65463;SDS011;52063;45.110;9.870;2023-11-19T01:29:04;10.03;;;6.63;;
65463;SDS011;52063;45.110;9.870;2023-11-19T01:31:30;10.30;;;6.50;;
65463;SDS011;52063;45.110;9.870;2023-11-19T01:33:59;9.73;;;6.33;;
65463;SDS011;52063;45.110;9.870;2023-11-19T01:36:24;12.43;;;7.13;;
65463;SDS011;52063;45.110;9.870;2023-11-19T01:38:50;9.90;;;6.00;;
65463;SDS011;52063;45.110;9.870;2023-11-19T01:41:15;12.47;;;6.57;;
65463;SDS011;52063;45.110;9.870;2023-11-19T01:43:40;10.38;;;6.22;;
65463;SDS011;52063;45.110;9.870;2023-11-19T01:46:07;9.90;;;6.03;;
65463;SDS011;52063;45.110;9.870;2023-11-19T01:48:35;10.70;;;6.72;;
65463;SDS011;52063;45.110;9.870;2023-11-19T01:51:04;11.82;;;6.60;;
65463;SDS011;52063;45.110;9.870;2023-11-19T01:53:30;11.18;;;7.10;;
65463;SDS011;52063;45.110;9.870;2023-11-19T01:55:57;11.50;;;6.20;;
65463;SDS011;52063;45.110;9.870;2023-11-19T01:58:23;11.00;;;6.57;;
65463;SDS011;52063;45.110;9.870;2023-11-19T02:00:48;11.35;;;6.47;;
65463;SDS011;52063;45.110;9.870;2023-11-19T02:03:14;10.93;;;6.10;;
65463;SDS011;52063;45.110;9.870;2023-11-19T02:05:40;9.63;;;6.72;;
65463;SDS011;52063;45.110;9.870;2023-11-19T02:08:05;8.13;;;5.83;;
65463;SDS011;52063;45.110;9.870;2023-11-19T02:10:31;12.50;;;6.37;;
65463;SDS011;52063;45.110;9.870;2023-11-19T02:12:57;8.80;;;6.33;;
65463;SDS011;52063;45.110;9.870;2023-11-19T02:15:23;10.45;;;6.43;;
65463;SDS011;52063;45.110;9.870;2023-11-19T02:17:50;10.25;;;5.90;;
65463;SDS011;52063;45.110;9.870;2023-11-19T02:20:16;10.45;;;6.47;;
65463;SDS011;52063;45.110;9.870;2023-11-19T02:22:41;10.30;;;6.50;;
65463;SDS011;52063;45.110;9.870;2023-11-19T02:25:07;9.02;;;5.95;;
65463;SDS011;52063;45.110;9.870;2023-11-19T02:30:22;9.20;;;5.80;;
65463;SDS011;52063;45.110;9.870;2023-11-19T02:32:55;9.65;;;6.13;;
65463;SDS011;52063;45.110;9.870;2023-11-19T02:35:24;9.88;;;5.97;;
65463;SDS011;52063;45.110;9.870;2023-11-19T02:37:51;10.10;;;5.95;;
65463;SDS011;52063;45.110;9.870;2023-11-19T02:40:16;10.13;;;5.90;;
65463;SDS011;52063;45.110;9.870;2023-11-19T02:42:42;8.52;;;5.90;;
65463;SDS011;52063;45.110;9.870;2023-11-19T02:45:08;9.13;;;5.87;;
65463;SDS011;52063;45.110;9.870;2023-11-19T02:47:39;11.48;;;6.15;;
65463;SDS011;52063;45.110;9.870;2023-11-19T02:50:09;10.50;;;5.60;;
65463;SDS011;52063;45.110;9.870;2023-11-19T02:52:43;10.57;;;5.85;;
65463;SDS011;52063;45.110;9.870;2023-11-19T02:55:12;10.32;;;6.30;;
65463;SDS011;52063;45.110;9.870;2023-11-19T02:57:38;7.73;;;5.30;;
65463;SDS011;52063;45.110;9.870;2023-11-19T03:00:12;7.68;;;5.32;;
65463;SDS011;52063;45.110;9.870;2023-11-19T03:02:42;8.77;;;5.60;;
65463;SDS011;52063;45.110;9.870;2023-11-19T03:05:12;10.75;;;6.00;;
65463;SDS011;52063;45.110;9.870;2023-11-19T03:07:42;8.90;;;5.43;;
65463;SDS011;52063;45.110;9.870;2023-11-19T03:10:09;7.60;;;5.57;;
65463;SDS011;52063;45.110;9.870;2023-11-19T03:12:39;7.80;;;5.82;;
65463;SDS011;52063;45.110;9.870;2023-11-19T03:15:05;8.48;;;5.40;;
65463;SDS011;52063;45.110;9.870;2023-11-19T03:17:31;7.70;;;5.10;;
65463;SDS011;52063;45.110;9.870;2023-11-19T03:19:56;8.20;;;5.13;;
65463;SDS011;52063;45.110;9.870;2023-11-19T03:22:22;8.17;;;4.80;;
65463;SDS011;52063;45.110;9.870;2023-11-19T03:24:47;8.77;;;5.57;;
65463;SDS011;52063;45.110;9.870;2023-11-19T03:27:16;9.93;;;5.63;;
65463;SDS011;52063;45.110;9.870;2023-11-19T03:29:41;8.15;;;5.18;;
65463;SDS011;52063;45.110;9.870;2023-11-19T03:32:07;7.30;;;5.13;;
65463;SDS011;52063;45.110;9.870;2023-11-19T03:34:32;8.70;;;5.40;;
65463;SDS011;52063;45.110;9.870;2023-11-19T03:36:58;7.07;;;5.20;;
65463;SDS011;52063;45.110;9.870;2023-11-19T03:39:24;7.07;;;4.80;;
65463;SDS011;52063;45.110;9.870;2023-11-19T03:41:50;8.20;;;5.20;;
65463;SDS011;52063;45.110;9.870;2023-11-19T03:44:16;7.82;;;5.10;;
65463;SDS011;52063;45.110;9.870;2023-11-19T03:46:42;8.20;;;5.40;;
65463;SDS011;52063;45.110;9.870;2023-11-19T03:49:07;7.57;;;5.30;;
65463;SDS011;52063;45.110;9.870;2023-11-19T03:51:33;9.00;;;4.90;;
65463;SDS011;52063;45.110;9.870;2023-11-19T03:53:59;6.30;;;4.78;;
65463;SDS011;52063;45.110;9.870;2023-11-19T03:56:26;6.55;;;4.72;;
65463;SDS011;52063;45.110;9.870;2023-11-19T03:58:52;8.65;;;5.25;;
65463;SDS011;52063;45.110;9.870;2023-11-19T04:01:18;7.27;;;4.80;;
65463;SDS011;52063;45.110;9.870;2023-11-19T04:03:44;8.27;;;5.07;;
65463;SDS011;52063;45.110;9.870;2023-11-19T04:06:10;6.40;;;4.53;;
65463;SDS011;52063;45.110;9.870;2023-11-19T04:08:35;5.72;;;4.50;;
65463;SDS011;52063;45.110;9.870;2023-11-19T04:11:02;8.33;;;5.13;;
65463;SDS011;52063;45.110;9.870;2023-11-19T04:13:29;9.95;;;4.68;;
65463;SDS011;52063;45.110;9.870;2023-11-19T04:15:54;6.00;;;4.57;;
65463;SDS011;52063;45.110;9.870;2023-11-19T04:18:20;7.13;;;4.80;;
65463;SDS011;52063;45.110;9.870;2023-11-19T04:20:45;7.67;;;4.43;;
65463;SDS011;52063;45.110;9.870;2023-11-19T04:23:11;8.02;;;4.25;;
65463;SDS011;52063;45.110;9.870;2023-11-19T04:25:36;8.03;;;4.73;;
65463;SDS011;52063;45.110;9.870;2023-11-19T04:28:02;7.13;;;4.60;;
65463;SDS011;52063;45.110;9.870;2023-11-19T04:30:28;8.55;;;4.40;;
65463;SDS011;52063;45.110;9.870;2023-11-19T04:32:53;8.37;;;4.17;;
65463;SDS011;52063;45.110;9.870;2023-11-19T04:35:19;6.80;;;4.93;;
65463;SDS011;52063;45.110;9.870;2023-11-19T04:37:44;6.00;;;4.73;;
65463;SDS011;52063;45.110;9.870;2023-11-19T04:40:10;7.75;;;4.90;;
65463;SDS011;52063;45.110;9.870;2023-11-19T04:42:37;8.10;;;4.60;;
65463;SDS011;52063;45.110;9.870;2023-11-19T04:45:05;5.47;;;4.35;;
65463;SDS011;52063;45.110;9.870;2023-11-19T04:47:35;6.53;;;4.55;;
65463;SDS011;52063;45.110;9.870;2023-11-19T04:50:00;8.05;;;4.72;;
65463;SDS011;52063;45.110;9.870;2023-11-19T04:52:26;7.73;;;4.20;;
65463;SDS011;52063;45.110;9.870;2023-11-19T04:54:51;6.35;;;4.45;;
65463;SDS011;52063;45.110;9.870;2023-11-19T04:57:17;6.83;;;4.97;;
65463;SDS011;52063;45.110;9.870;2023-11-19T04:59:43;9.75;;;4.80;;
65463;SDS011;52063;45.110;9.870;2023-11-19T05:02:09;5.30;;;4.07;;
65463;SDS011;52063;45.110;9.870;2023-11-19T05:04:34;9.20;;;4.90;;
65463;SDS011;52063;45.110;9.870;2023-11-19T05:07:00;5.77;;;4.30;;
65463;SDS011;52063;45.110;9.870;2023-11-19T05:09:26;5.88;;;4.40;;
65463;SDS011;52063;45.110;9.870;2023-11-19T05:11:51;5.37;;;4.07;;
65463;SDS011;52063;45.110;9.870;2023-11-19T05:14:17;9.00;;;4.32;;
65463;SDS011;52063;45.110;9.870;2023-11-19T05:16:45;5.18;;;4.45;;
65463;SDS011;52063;45.110;9.870;2023-11-19T05:19:11;6.60;;;4.40;;
65463;SDS011;52063;45.110;9.870;2023-11-19T05:21:37;7.78;;;4.55;;
65463;SDS011;52063;45.110;9.870;2023-11-19T05:24:02;5.80;;;4.30;;
65463;SDS011;52063;45.110;9.870;2023-11-19T05:26:32;7.80;;;4.43;;
65463;SDS011;52063;45.110;9.870;2023-11-19T05:28:58;4.73;;;4.00;;
65463;SDS011;52063;45.110;9.870;2023-11-19T05:31:23;6.60;;;4.72;;
65463;SDS011;52063;45.110;9.870;2023-11-19T05:33:48;5.97;;;4.13;;
65463;SDS011;52063;45.110;9.870;2023-11-19T05:36:14;5.50;;;4.20;;
65463;SDS011;52063;45.110;9.870;2023-11-19T05:38:40;6.25;;;4.00;;
65463;SDS011;52063;45.110;9.870;2023-11-19T05:41:05;6.07;;;4.23;;
65463;SDS011;52063;45.110;9.870;2023-11-19T05:43:33;6.27;;;4.60;;
65463;SDS011;52063;45.110;9.870;2023-11-19T05:45:59;10.50;;;5.07;;
65463;SDS011;52063;45.110;9.870;2023-11-19T05:48:26;5.03;;;3.75;;
65463;SDS011;52063;45.110;9.870;2023-11-19T05:50:52;6.05;;;4.45;;
65463;SDS011;52063;45.110;9.870;2023-11-19T05:53:18;5.65;;;4.40;;
65463;SDS011;52063;45.110;9.870;2023-11-19T05:55:44;7.63;;;4.47;;
65463;SDS011;52063;45.110;9.870;2023-11-19T05:58:19;5.35;;;4.10;;
65463;SDS011;52063;45.110;9.870;2023-11-19T06:00:48;6.00;;;4.53;;
65463;SDS011;52063;45.110;9.870;2023-11-19T06:03:13;7.00;;;4.33;;
65463;SDS011;52063;45.110;9.870;2023-11-19T06:05:39;5.30;;;4.00;;
65463;SDS011;52063;45.110;9.870;2023-11-19T06:08:04;6.07;;;4.50;;
65463;SDS011;52063;45.110;9.870;2023-11-19T06:10:32;5.90;;;4.20;;
65463;SDS011;52063;45.110;9.870;2023-11-19T06:12:58;4.50;;;3.40;;
65463;SDS011;52063;45.110;9.870;2023-11-19T06:15:25;6.72;;;3.83;;
65463;SDS011;52063;45.110;9.870;2023-11-19T06:17:54;5.97;;;4.40;;
65463;SDS011;52063;45.110;9.870;2023-11-19T06:20:20;6.53;;;4.20;;
65463;SDS011;52063;45.110;9.870;2023-11-19T06:22:46;4.75;;;3.78;;
65463;SDS011;52063;45.110;9.870;2023-11-19T06:25:12;4.93;;;3.60;;
65463;SDS011;52063;45.110;9.870;2023-11-19T06:27:40;4.63;;;4.10;;
65463;SDS011;52063;45.110;9.870;2023-11-19T06:30:06;5.88;;;4.00;;
65463;SDS011;52063;45.110;9.870;2023-11-19T06:32:32;5.57;;;4.25;;
65463;SDS011;52063;45.110;9.870;2023-11-19T06:34:58;4.93;;;4.00;;
65463;SDS011;52063;45.110;9.870;2023-11-19T06:37:23;5.90;;;4.07;;
65463;SDS011;52063;45.110;9.870;2023-11-19T06:39:49;5.33;;;3.83;;
65463;SDS011;52063;45.110;9.870;2023-11-19T06:42:14;5.37;;;4.20;;
65463;SDS011;52063;45.110;9.870;2023-11-19T06:44:40;4.35;;;3.63;;
65463;SDS011;52063;45.110;9.870;2023-11-19T06:47:05;6.10;;;3.70;;
65463;SDS011;52063;45.110;9.870;2023-11-19T06:49:31;7.90;;;3.95;;
65463;SDS011;52063;45.110;9.870;2023-11-19T06:51:57;4.90;;;4.03;;
65463;SDS011;52063;45.110;9.870;2023-11-19T06:54:24;5.85;;;3.90;;
65463;SDS011;52063;45.110;9.870;2023-11-19T06:56:49;4.53;;;3.97;;
65463;SDS011;52063;45.110;9.870;2023-11-19T06:59:15;5.03;;;4.00;;
65463;SDS011;52063;45.110;9.870;2023-11-19T07:01:40;4.93;;;4.00;;
65463;SDS011;52063;45.110;9.870;2023-11-19T07:04:10;4.93;;;3.80;;
65463;SDS011;52063;45.110;9.870;2023-11-19T07:06:37;4.68;;;4.00;;
65463;SDS011;52063;45.110;9.870;2023-11-19T07:09:03;4.37;;;3.83;;
65463;SDS011;52063;45.110;9.870;2023-11-19T07:11:35;4.25;;;3.50;;
65463;SDS011;52063;45.110;9.870;2023-11-19T07:14:04;6.07;;;3.65;;
65463;SDS011;52063;45.110;9.870;2023-11-19T07:16:30;5.82;;;4.10;;
65463;SDS011;52063;45.110;9.870;2023-11-19T07:18:56;4.60;;;3.72;;
65463;SDS011;52063;45.110;9.870;2023-11-19T07:21:21;5.10;;;3.97;;
65463;SDS011;52063;45.110;9.870;2023-11-19T07:23:47;4.90;;;3.57;;
65463;SDS011;52063;45.110;9.870;2023-11-19T07:26:12;4.40;;;3.90;;
65463;SDS011;52063;45.110;9.870;2023-11-19T07:28:38;4.40;;;3.87;;
65463;SDS011;52063;45.110;9.870;2023-11-19T07:31:05;5.03;;;3.60;;
65463;SDS011;52063;45.110;9.870;2023-11-19T07:33:32;5.03;;;3.70;;
65463;SDS011;52063;45.110;9.870;2023-11-19T07:35:58;5.05;;;3.67;;
65463;SDS011;52063;45.110;9.870;2023-11-19T07:38:24;4.15;;;3.75;;
65463;SDS011;52063;45.110;9.870;2023-11-19T07:40:50;4.90;;;3.87;;
65463;SDS011;52063;45.110;9.870;2023-11-19T07:43:15;4.07;;;3.67;;
65463;SDS011;52063;45.110;9.870;2023-11-19T07:45:41;4.85;;;4.10;;
65463;SDS011;52063;45.110;9.870;2023-11-19T07:48:09;5.05;;;3.80;;
65463;SDS011;52063;45.110;9.870;2023-11-19T07:50:35;3.83;;;3.45;;
65463;SDS011;52063;45.110;9.870;2023-11-19T07:53:00;6.80;;;3.97;;
65463;SDS011;52063;45.110;9.870;2023-11-19T07:55:27;6.90;;;3.80;;
65463;SDS011;52063;45.110;9.870;2023-11-19T07:57:52;4.10;;;3.63;;
65463;SDS011;52063;45.110;9.870;2023-11-19T08:00:18;4.80;;;4.17;;
65463;SDS011;52063;45.110;9.870;2023-11-19T08:02:44;5.00;;;4.07;;
65463;SDS011;52063;45.110;9.870;2023-11-19T08:05:10;4.17;;;3.50;;
65463;SDS011;52063;45.110;9.870;2023-11-19T08:07:36;6.37;;;3.90;;
65463;SDS011;52063;45.110;9.870;2023-11-19T08:10:02;6.03;;;4.40;;
65463;SDS011;52063;45.110;9.870;2023-11-19T08:12:28;4.40;;;4.00;;
65463;SDS011;52063;45.110;9.870;2023-11-19T08:14:53;5.18;;;4.10;;
65463;SDS011;52063;45.110;9.870;2023-11-19T08:17:19;4.90;;;4.40;;
65463;SDS011;52063;45.110;9.870;2023-11-19T08:19:44;4.77;;;3.83;;
65463;SDS011;52063;45.110;9.870;2023-11-19T08:22:10;4.30;;;3.63;;
65463;SDS011;52063;45.110;9.870;2023-11-19T08:24:35;4.03;;;3.30;;
65463;SDS011;52063;45.110;9.870;2023-11-19T08:27:01;4.17;;;3.63;;
65463;SDS011;52063;45.110;9.870;2023-11-19T08:29:26;6.00;;;3.75;;
65463;SDS011;52063;45.110;9.870;2023-11-19T08:31:52;4.33;;;3.70;;
65463;SDS011;52063;45.110;9.870;2023-11-19T08:34:18;5.22;;;3.70;;
65463;SDS011;52063;45.110;9.870;2023-11-19T08:36:44;5.23;;;3.60;;
65463;SDS011;52063;45.110;9.870;2023-11-19T08:39:09;5.13;;;3.23;;
65463;SDS011;52063;45.110;9.870;2023-11-19T08:41:34;4.68;;;3.65;;
65463;SDS011;52063;45.110;9.870;2023-11-19T08:44:00;4.33;;;3.70;;
65463;SDS011;52063;45.110;9.870;2023-11-19T08:46:25;4.00;;;3.60;;
65463;SDS011;52063;45.110;9.870;2023-11-19T08:48:51;4.95;;;3.40;;
65463;SDS011;52063;45.110;9.870;2023-11-19T08:51:17;4.23;;;3.50;;
65463;SDS011;52063;45.110;9.870;2023-11-19T08:53:42;4.20;;;3.30;;
65463;SDS011;52063;45.110;9.870;2023-11-19T08:56:07;4.18;;;3.35;;
65463;SDS011;52063;45.110;9.870;2023-11-19T08:58:33;4.73;;;4.00;;
65463;SDS011;52063;45.110;9.870;2023-11-19T09:00:58;4.27;;;3.50;;
65463;SDS011;52063;45.110;9.870;2023-11-19T09:03:24;5.55;;;3.90;;
65463;SDS011;52063;45.110;9.870;2023-11-19T09:05:51;4.82;;;3.50;;
65463;SDS011;52063;45.110;9.870;2023-11-19T09:08:17;4.00;;;3.33;;
65463;SDS011;52063;45.110;9.870;2023-11-19T09:10:43;4.70;;;3.65;;
65463;SDS011;52063;45.110;9.870;2023-11-19T09:13:08;4.97;;;3.67;;
65463;SDS011;52063;45.110;9.870;2023-11-19T09:15:33;5.10;;;3.97;;
65463;SDS011;52063;45.110;9.870;2023-11-19T09:17:59;3.83;;;3.43;;
65463;SDS011;52063;45.110;9.870;2023-11-19T09:20:24;5.05;;;4.00;;
65463;SDS011;52063;45.110;9.870;2023-11-19T09:22:50;4.40;;;4.00;;
65463;SDS011;52063;45.110;9.870;2023-11-19T09:25:17;4.65;;;3.33;;
65463;SDS011;52063;45.110;9.870;2023-11-19T09:27:45;4.67;;;3.50;;
65463;SDS011;52063;45.110;9.870;2023-11-19T09:30:10;4.20;;;3.78;;
65463;SDS011;52063;45.110;9.870;2023-11-19T09:32:36;4.63;;;3.75;;
65463;SDS011;52063;45.110;9.870;2023-11-19T09:35:03;3.73;;;3.30;;
65463;SDS011;52063;45.110;9.870;2023-11-19T09:37:29;5.93;;;3.83;;
65463;SDS011;52063;45.110;9.870;2023-11-19T09:39:54;4.25;;;3.47;;
65463;SDS011;52063;45.110;9.870;2023-11-19T09:42:20;4.23;;;3.60;;
65463;SDS011;52063;45.110;9.870;2023-11-19T09:44:45;4.20;;;3.43;;
65463;SDS011;52063;45.110;9.870;2023-11-19T09:47:12;3.83;;;3.43;;
65463;SDS011;52063;45.110;9.870;2023-11-19T09:49:39;5.25;;;3.70;;
65463;SDS011;52063;45.110;9.870;2023-11-19T09:52:05;5.63;;;3.85;;
65463;SDS011;52063;45.110;9.870;2023-11-19T09:54:30;4.30;;;3.20;;
65463;SDS011;52063;45.110;9.870;2023-11-19T09:56:56;4.53;;;3.60;;
65463;SDS011;52063;45.110;9.870;2023-11-19T09:59:28;4.40;;;3.55;;
65463;SDS011;52063;45.110;9.870;2023-11-19T10:01:55;6.17;;;3.80;;
65463;SDS011;52063;45.110;9.870;2023-11-19T10:04:22;4.97;;;3.60;;
65463;SDS011;52063;45.110;9.870;2023-11-19T10:06:47;4.40;;;3.90;;
65463;SDS011;52063;45.110;9.870;2023-11-19T10:09:13;3.33;;;3.03;;
65463;SDS011;52063;45.110;9.870;2023-11-19T10:11:40;4.00;;;3.60;;
65463;SDS011;52063;45.110;9.870;2023-11-19T10:14:05;3.97;;;3.33;;
65463;SDS011;52063;45.110;9.870;2023-11-19T10:16:31;4.13;;;3.50;;
65463;SDS011;52063;45.110;9.870;2023-11-19T10:18:59;3.80;;;3.40;;
65463;SDS011;52063;45.110;9.870;2023-11-19T10:21:25;4.37;;;3.60;;
65463;SDS011;52063;45.110;9.870;2023-11-19T10:23:53;3.70;;;3.30;;
65463;SDS011;52063;45.110;9.870;2023-11-19T10:26:21;4.43;;;3.95;;
65463;SDS011;52063;45.110;9.870;2023-11-19T10:28:47;6.67;;;3.30;;
65463;SDS011;52063;45.110;9.870;2023-11-19T10:31:13;3.70;;;3.30;;
65463;SDS011;52063;45.110;9.870;2023-11-19T10:33:39;4.75;;;4.25;;
65463;SDS011;52063;45.110;9.870;2023-11-19T10:36:05;5.07;;;3.90;;
65463;SDS011;52063;45.110;9.870;2023-11-19T10:38:31;5.78;;;4.65;;
65463;SDS011;52063;45.110;9.870;2023-11-19T10:40:57;7.43;;;5.10;;
65463;SDS011;52063;45.110;9.870;2023-11-19T10:43:24;6.10;;;5.50;;
65463;SDS011;52063;45.110;9.870;2023-11-19T10:45:50;10.02;;;6.97;;
65463;SDS011;52063;45.110;9.870;2023-11-19T10:48:16;12.48;;;6.75;;
65463;SDS011;52063;45.110;9.870;2023-11-19T10:50:43;11.10;;;7.90;;
65463;SDS011;52063;45.110;9.870;2023-11-19T10:53:10;9.73;;;7.88;;
65463;SDS011;52063;45.110;9.870;2023-11-19T10:55:40;11.30;;;8.13;;
65463;SDS011;52063;45.110;9.870;2023-11-19T10:58:09;11.35;;;8.32;;
65463;SDS011;52063;45.110;9.870;2023-11-19T11:00:40;11.20;;;8.25;;
65463;SDS011;52063;45.110;9.870;2023-11-19T11:03:15;11.98;;;8.10;;
65463;SDS011;52063;45.110;9.870;2023-11-19T11:05:42;10.27;;;8.13;;
65463;SDS011;52063;45.110;9.870;2023-11-19T11:08:07;10.70;;;8.73;;
65463;SDS011;52063;45.110;9.870;2023-11-19T11:10:36;9.32;;;8.30;;
65463;SDS011;52063;45.110;9.870;2023-11-19T11:13:04;10.65;;;8.63;;
65463;SDS011;52063;45.110;9.870;2023-11-19T11:15:30;12.55;;;9.40;;
65463;SDS011;52063;45.110;9.870;2023-11-19T11:18:00;15.17;;;11.03;;
65463;SDS011;52063;45.110;9.870;2023-11-19T11:20:27;13.18;;;10.60;;
65463;SDS011;52063;45.110;9.870;2023-11-19T11:39:41;12.90;;;9.85;;
65463;SDS011;52063;45.110;9.870;2023-11-19T11:50:09;11.27;;;9.97;;
65463;SDS011;52063;45.110;9.870;2023-11-19T11:55:33;12.50;;;9.45;;
65463;SDS011;52063;45.110;9.870;2023-11-19T11:58:03;13.55;;;10.07;;
65463;SDS011;52063;45.110;9.870;2023-11-19T12:02:55;11.30;;;9.20;;
65463;SDS011;52063;45.110;9.870;2023-11-19T12:05:21;11.38;;;9.35;;
65463;SDS011;52063;45.110;9.870;2023-11-19T12:07:57;11.03;;;9.07;;
65463;SDS011;52063;45.110;9.870;2023-11-19T12:10:25;14.73;;;9.82;;
65463;SDS011;52063;45.110;9.870;2023-11-19T12:12:56;10.70;;;9.13;;
65463;SDS011;52063;45.110;9.870;2023-11-19T12:15:23;13.18;;;9.27;;
65463;SDS011;52063;45.110;9.870;2023-11-19T12:17:50;11.45;;;8.85;;
65463;SDS011;52063;45.110;9.870;2023-11-19T12:20:17;12.67;;;9.67;;
65463;SDS011;52063;45.110;9.870;2023-11-19T12:22:44;12.18;;;9.30;;
65463;SDS011;52063;45.110;9.870;2023-11-19T12:25:11;11.95;;;9.35;;
65463;SDS011;52063;45.110;9.870;2023-11-19T12:27:39;11.67;;;9.50;;
65463;SDS011;52063;45.110;9.870;2023-11-19T12:30:06;11.75;;;9.18;;
65463;SDS011;52063;45.110;9.870;2023-11-19T12:32:38;12.82;;;9.23;;
65463;SDS011;52063;45.110;9.870;2023-11-19T12:35:05;12.48;;;9.23;;
65463;SDS011;52063;45.110;9.870;2023-11-19T12:37:32;12.27;;;8.88;;
65463;SDS011;52063;45.110;9.870;2023-11-19T12:39:57;13.00;;;9.23;;
65463;SDS011;52063;45.110;9.870;2023-11-19T12:42:38;10.23;;;9.13;;
65463;SDS011;52063;45.110;9.870;2023-11-19T12:45:04;11.45;;;9.00;;
65463;SDS011;52063;45.110;9.870;2023-11-19T12:47:30;11.87;;;9.23;;
65463;SDS011;52063;45.110;9.870;2023-11-19T12:49:59;10.25;;;9.13;;
65463;SDS011;52063;45.110;9.870;2023-11-19T12:52:25;10.88;;;9.25;;
65463;SDS011;52063;45.110;9.870;2023-11-19T12:54:50;9.93;;;8.90;;
65463;SDS011;52063;45.110;9.870;2023-11-19T12:57:16;12.38;;;9.27;;
65463;SDS011;52063;45.110;9.870;2023-11-19T12:59:54;10.70;;;8.75;;
65463;SDS011;52063;45.110;9.870;2023-11-19T13:02:23;12.07;;;9.30;;
65463;SDS011;52063;45.110;9.870;2023-11-19T13:04:48;10.38;;;8.85;;
65463;SDS011;52063;45.110;9.870;2023-11-19T13:07:15;9.97;;;8.70;;
65463;SDS011;52063;45.110;9.870;2023-11-19T13:09:45;12.13;;;9.02;;
65463;SDS011;52063;45.110;9.870;2023-11-19T13:12:12;11.55;;;8.45;;
65463;SDS011;52063;45.110;9.870;2023-11-19T13:14:39;11.30;;;9.02;;
65463;SDS011;52063;45.110;9.870;2023-11-19T13:17:07;10.47;;;8.07;;
65463;SDS011;52063;45.110;9.870;2023-11-19T13:19:33;12.68;;;8.70;;
65463;SDS011;52063;45.110;9.870;2023-11-19T13:21:59;10.98;;;8.50;;
65463;SDS011;52063;45.110;9.870;2023-11-19T13:24:24;10.27;;;8.10;;
65463;SDS011;52063;45.110;9.870;2023-11-19T13:26:50;12.20;;;8.25;;
65463;SDS011;52063;45.110;9.870;2023-11-19T13:29:15;9.33;;;8.30;;
65463;SDS011;52063;45.110;9.870;2023-11-19T13:31:41;9.17;;;7.87;;
65463;SDS011;52063;45.110;9.870;2023-11-19T13:34:06;8.83;;;7.87;;
65463;SDS011;52063;45.110;9.870;2023-11-19T13:36:33;10.25;;;8.40;;
65463;SDS011;52063;45.110;9.870;2023-11-19T13:38:59;12.15;;;7.60;;
65463;SDS011;52063;45.110;9.870;2023-11-19T13:41:25;9.38;;;7.57;;
65463;SDS011;52063;45.110;9.870;2023-11-19T13:43:51;9.70;;;7.57;;
65463;SDS011;52063;45.110;9.870;2023-11-19T13:46:17;9.60;;;7.45;;
65463;SDS011;52063;45.110;9.870;2023-11-19T13:48:42;10.93;;;7.57;;
65463;SDS011;52063;45.110;9.870;2023-11-19T13:51:08;8.98;;;7.00;;
65463;SDS011;52063;45.110;9.870;2023-11-19T13:53:35;8.05;;;6.80;;
65463;SDS011;52063;45.110;9.870;2023-11-19T13:56:00;7.60;;;6.83;;
65463;SDS011;52063;45.110;9.870;2023-11-19T13:58:26;8.57;;;7.00;;
65463;SDS011;52063;45.110;9.870;2023-11-19T14:00:51;7.35;;;6.57;;
65463;SDS011;52063;45.110;9.870;2023-11-19T14:03:17;8.73;;;6.90;;
65463;SDS011;52063;45.110;9.870;2023-11-19T14:05:43;7.38;;;6.43;;
65463;SDS011;52063;45.110;9.870;2023-11-19T14:08:08;10.07;;;6.40;;
65463;SDS011;52063;45.110;9.870;2023-11-19T14:10:40;8.40;;;7.00;;
65463;SDS011;52063;45.110;9.870;2023-11-19T14:13:06;9.27;;;6.22;;
65463;SDS011;52063;45.110;9.870;2023-11-19T14:15:32;8.40;;;5.90;;
65463;SDS011;52063;45.110;9.870;2023-11-19T14:17:57;7.57;;;6.00;;
65463;SDS011;52063;45.110;9.870;2023-11-19T14:20:23;7.13;;;5.87;;
65463;SDS011;52063;45.110;9.870;2023-11-19T14:22:48;7.15;;;5.80;;
65463;SDS011;52063;45.110;9.870;2023-11-19T14:25:15;8.57;;;6.67;;
65463;SDS011;52063;45.110;9.870;2023-11-19T14:27:41;6.88;;;6.13;;
65463;SDS011;52063;45.110;9.870;2023-11-19T14:30:10;7.05;;;5.95;;
65463;SDS011;52063;45.110;9.870;2023-11-19T14:32:38;7.60;;;5.67;;
65463;SDS011;52063;45.110;9.870;2023-11-19T14:35:05;6.88;;;5.85;;
65463;SDS011;52063;45.110;9.870;2023-11-19T14:37:31;8.38;;;5.80;;
65463;SDS011;52063;45.110;9.870;2023-11-19T14:39:57;5.97;;;5.37;;
65463;SDS011;52063;45.110;9.870;2023-11-19T14:42:25;5.72;;;5.00;;
65463;SDS011;52063;45.110;9.870;2023-11-19T14:44:51;5.97;;;4.80;;
65463;SDS011;52063;45.110;9.870;2023-11-19T14:47:23;5.77;;;5.00;;
65463;SDS011;52063;45.110;9.870;2023-11-19T14:49:49;5.43;;;4.93;;
65463;SDS011;52063;45.110;9.870;2023-11-19T14:52:15;5.73;;;5.10;;
65463;SDS011;52063;45.110;9.870;2023-11-19T14:54:40;7.72;;;5.13;;
65463;SDS011;52063;45.110;9.870;2023-11-19T14:57:06;5.60;;;4.80;;
65463;SDS011;52063;45.110;9.870;2023-11-19T14:59:35;5.75;;;4.50;;
65463;SDS011;52063;45.110;9.870;2023-11-19T15:02:01;6.70;;;4.68;;
65463;SDS011;52063;45.110;9.870;2023-11-19T15:04:27;6.32;;;5.03;;
65463;SDS011;52063;45.110;9.870;2023-11-19T15:06:53;6.27;;;5.00;;
65463;SDS011;52063;45.110;9.870;2023-11-19T15:09:18;5.00;;;4.50;;
65463;SDS011;52063;45.110;9.870;2023-11-19T15:11:46;5.72;;;4.78;;